createdAt,value
2023-03-03T03:13:40.373Z,3.70
2023-03-03T03:16:43.337Z,3.46
2023-03-03T03:19:45.961Z,3.60
2023-03-03T03:22:48.742Z,3.64
2023-03-03T03:25:51.486Z,3.63
2023-03-03T03:28:55.892Z,3.54
2023-03-03T03:31:58.566Z,3.51
2023-03-03T03:35:01.330Z,3.70
2023-03-03T03:38:04.273Z,3.57
2023-03-03T03:41:07.965Z,3.54
2023-03-03T03:44:12.197Z,3.11
2023-03-03T03:47:14.787Z,3.18
2023-03-03T03:50:17.508Z,2.97
2023-03-03T03:53:20.491Z,3.18
2023-03-03T03:56:23.087Z,3.32
2023-03-03T03:59:27.033Z,3.26
2023-03-03T04:02:29.829Z,3.17
2023-03-03T04:05:32.491Z,3.25
2023-03-03T04:08:35.094Z,3.14
2023-03-03T04:11:37.695Z,3.25
2023-03-03T04:14:41.720Z,3.32
2023-03-03T04:17:44.424Z,3.16
2023-03-03T04:20:47.051Z,2.99
2023-03-03T04:23:49.655Z,3.26
2023-03-03T04:26:52.251Z,3.32
2023-03-03T04:29:56.173Z,3.34
2023-03-03T04:32:58.889Z,3.21
2023-03-03T04:36:01.464Z,2.86
2023-03-03T04:39:04.292Z,2.89
2023-03-03T04:42:07.065Z,2.89
2023-03-03T04:45:12.390Z,2.87
2023-03-03T04:48:15.247Z,2.99
2023-03-03T04:51:18.656Z,2.97
2023-03-03T04:54:21.285Z,2.98
2023-03-03T04:57:23.886Z,3.22
2023-03-03T05:00:27.886Z,3.21
2023-03-03T05:03:30.563Z,3.21
2023-03-03T05:06:33.257Z,3.34
2023-03-03T05:09:35.918Z,3.32
2023-03-03T05:12:38.550Z,3.30
2023-03-03T05:15:43.449Z,3.24
2023-03-03T05:18:46.539Z,3.27
2023-03-03T05:21:49.140Z,3.30
2023-03-03T05:24:51.778Z,3.25
2023-03-03T05:27:54.891Z,3.25
2023-03-03T05:30:58.848Z,3.25
2023-03-03T05:34:01.433Z,3.28
2023-03-03T05:37:06.690Z,3.04
2023-03-03T05:40:10.737Z,3.18
2023-03-03T05:43:13.330Z,3.21
2023-03-03T05:46:17.333Z,3.20
2023-03-03T05:49:19.935Z,2.98
2023-03-03T05:52:24.208Z,3.00
2023-03-03T05:55:26.832Z,2.68
2023-03-03T05:58:29.435Z,2.74
2023-03-03T06:01:33.790Z,2.99
2023-03-03T06:04:36.435Z,2.93
2023-03-03T06:07:39.023Z,3.11
2023-03-03T06:10:41.621Z,3.04
2023-03-03T06:13:44.226Z,2.92
2023-03-03T06:16:48.303Z,2.95
2023-03-03T06:19:50.987Z,2.85
2023-03-03T06:22:53.635Z,3.00
2023-03-03T06:25:56.325Z,3.03
2023-03-03T06:28:59.668Z,3.05
2023-03-03T06:32:03.994Z,2.93
2023-03-03T06:35:07.551Z,3.16
2023-03-03T06:38:10.143Z,3.20
2023-03-03T06:41:13.107Z,3.09
2023-03-03T06:44:15.749Z,3.02
2023-03-03T06:47:19.673Z,3.26
2023-03-03T06:50:22.414Z,3.11
2023-03-03T06:53:26.496Z,2.93
2023-03-03T06:56:29.605Z,3.17
2023-03-03T06:59:32.201Z,2.75
2023-03-03T07:02:36.130Z,3.05
2023-03-03T07:05:38.741Z,2.65
2023-03-03T07:08:41.686Z,2.91
2023-03-03T07:11:46.542Z,2.96
2023-03-03T07:14:55.481Z,3.06
2023-03-03T07:17:59.690Z,3.04
2023-03-03T07:21:14.297Z,3.24
2023-03-03T07:24:27.095Z,2.67
2023-03-03T07:27:32.129Z,2.84
2023-03-03T07:30:34.747Z,2.97
2023-03-03T07:33:44.739Z,2.80
2023-03-03T07:36:47.401Z,2.53
2023-03-03T07:39:51.645Z,2.59
2023-03-03T07:42:54.238Z,2.94
2023-03-03T07:46:02.759Z,3.19
2023-03-03T07:49:21.536Z,3.35
2023-03-03T07:52:30.612Z,3.35
2023-03-03T07:55:37.244Z,3.17
2023-03-03T07:58:41.911Z,3.04
2023-03-03T08:01:49.302Z,3.32
2023-03-03T08:04:54.753Z,3.44
2023-03-03T08:08:13.219Z,3.45
2023-03-03T08:11:15.870Z,3.51
2023-03-03T08:14:26.507Z,3.53
2023-03-03T08:17:37.729Z,3.55
2023-03-03T08:20:46.343Z,3.31
2023-03-03T08:23:51.498Z,3.38
2023-03-03T08:26:54.074Z,3.40
2023-03-03T08:29:56.706Z,3.06
2023-03-03T08:32:59.364Z,3.06
2023-03-03T08:36:03.368Z,3.32
2023-03-03T08:39:06.449Z,3.16
2023-03-03T08:42:09.020Z,3.35
2023-03-03T08:45:11.641Z,3.46
2023-03-03T08:48:15.034Z,3.46
2023-03-03T08:51:19.117Z,3.31
2023-03-03T08:54:21.684Z,3.34
2023-03-03T08:57:24.394Z,3.05
2023-03-03T09:00:27.517Z,3.25
2023-03-03T09:03:30.809Z,3.26
2023-03-03T09:06:34.797Z,3.18
2023-03-03T09:09:38.647Z,3.54
2023-03-03T09:12:44.046Z,3.40
2023-03-03T09:15:49.180Z,3.39
2023-03-03T09:18:51.876Z,3.42
2023-03-03T09:21:57.527Z,3.60
2023-03-03T09:25:00.723Z,3.18
2023-03-03T09:28:04.233Z,3.33
2023-03-03T09:31:23.194Z,3.67
2023-03-03T09:34:32.164Z,3.63
2023-03-03T09:37:40.388Z,3.63
2023-03-03T09:40:56.154Z,3.76
2023-03-03T09:44:17.205Z,3.71
2023-03-03T09:47:48.110Z,3.58
2023-03-03T09:51:04.220Z,3.74
2023-03-03T09:54:18.846Z,3.45
2023-03-03T09:57:30.505Z,3.57
2023-03-03T10:00:42.982Z,3.59
2023-03-03T10:04:17.094Z,3.66
2023-03-03T10:07:28.638Z,4.10
2023-03-03T10:10:50.054Z,3.97
2023-03-03T10:14:19.780Z,3.89
2023-03-03T10:17:38.289Z,3.76
2023-03-03T10:20:58.459Z,3.58
2023-03-03T10:24:15.601Z,3.83
2023-03-03T10:27:37.806Z,3.73
2023-03-03T10:31:04.664Z,4.04
2023-03-03T10:34:22.168Z,4.13
2023-03-03T10:37:31.839Z,3.43
2023-03-03T10:40:38.662Z,3.74
2023-03-03T10:43:59.833Z,3.63
2023-03-03T10:47:35.595Z,3.62
2023-03-03T10:50:51.461Z,3.54
2023-03-03T10:54:07.735Z,3.54
2023-03-03T10:57:19.796Z,3.51
2023-03-03T11:00:27.645Z,3.92
2023-03-03T11:04:08.720Z,4.05
2023-03-03T11:07:20.807Z,4.30
2023-03-03T11:10:37.994Z,4.03
2023-03-03T11:13:46.993Z,4.06
2023-03-03T11:17:02.518Z,4.16
2023-03-03T11:20:10.689Z,4.32
2023-03-03T11:23:30.674Z,4.09
2023-03-03T11:26:44.523Z,4.45
2023-03-03T11:30:10.096Z,4.59
2023-03-03T11:33:21.744Z,4.68
2023-03-03T11:36:29.943Z,4.48
2023-03-03T11:39:32.615Z,4.91
2023-03-03T11:42:47.956Z,4.78
2023-03-03T11:45:56.286Z,4.81
2023-03-03T11:49:06.008Z,4.76
2023-03-03T11:52:21.475Z,4.86
2023-03-03T11:55:31.487Z,4.87
2023-03-03T11:58:43.662Z,5.09
2023-03-03T12:01:53.394Z,5.00
2023-03-03T12:05:01.079Z,5.01
2023-03-03T12:08:16.505Z,4.92
2023-03-03T12:11:25.548Z,5.05
2023-03-03T12:14:42.831Z,4.87
2023-03-03T12:18:17.061Z,5.01
2023-03-03T12:21:41.416Z,5.30
2023-03-03T12:24:58.102Z,5.14
2023-03-03T12:28:07.262Z,5.33
2023-03-03T12:31:22.641Z,5.42
2023-03-03T12:34:35.437Z,5.69
2023-03-03T12:37:50.723Z,5.77
2023-03-03T12:41:01.704Z,5.72
2023-03-03T12:44:09.329Z,5.52
2023-03-03T12:47:19.912Z,5.68
2023-03-03T12:50:33.572Z,5.94
2023-03-03T12:53:52.203Z,6.46
2023-03-03T12:56:56.519Z,7.19
2023-03-03T13:00:22.984Z,7.90
2023-03-03T13:03:53.300Z,7.96
2023-03-03T13:07:05.667Z,7.99
2023-03-03T13:10:19.421Z,8.07
2023-03-03T13:13:28.666Z,7.61
2023-03-03T13:16:41.482Z,7.15
2023-03-03T13:19:50.401Z,6.99
2023-03-03T13:22:59.202Z,7.24
2023-03-03T13:26:08.861Z,7.29
2023-03-03T13:29:20.432Z,7.36
2023-03-03T13:32:24.924Z,7.09
2023-03-03T13:35:38.783Z,7.19
2023-03-03T13:38:44.025Z,7.24
2023-03-03T13:41:56.900Z,7.56
2023-03-03T13:45:02.893Z,7.32
2023-03-03T13:48:16.200Z,6.95
2023-03-03T13:51:27.652Z,6.67
2023-03-03T13:55:01.142Z,6.95
2023-03-03T13:58:12.665Z,6.93
2023-03-03T14:01:21.865Z,6.91
2023-03-03T14:04:33.870Z,6.68
2023-03-03T14:07:42.480Z,6.70
2023-03-03T14:10:50.124Z,6.80
2023-03-03T14:14:03.642Z,6.76
2023-03-03T14:17:16.759Z,6.80
2023-03-03T14:20:25.054Z,6.98
2023-03-03T14:23:35.815Z,6.97
2023-03-03T14:26:49.350Z,7.08
2023-03-03T14:29:53.336Z,6.83
2023-03-03T14:33:06.490Z,6.85
2023-03-03T14:36:15.912Z,6.66
2023-03-03T14:39:31.574Z,6.71
2023-03-03T14:42:38.062Z,6.64
2023-03-03T14:45:43.066Z,6.65
2023-03-03T14:48:52.165Z,6.57
2023-03-03T14:51:54.885Z,6.50
2023-03-03T14:55:00.362Z,6.38
2023-03-03T14:58:04.101Z,6.51
2023-03-03T15:01:22.112Z,6.57
2023-03-03T15:04:26.546Z,6.61
2023-03-03T15:07:34.330Z,6.52
2023-03-03T15:10:38.482Z,6.42
2023-03-03T15:13:41.128Z,6.47
2023-03-03T15:16:45.442Z,6.32
2023-03-03T15:20:19.860Z,6.30
2023-03-03T15:23:38.383Z,6.33
2023-03-03T15:26:48.258Z,6.23
2023-03-03T15:30:02.680Z,6.19
2023-03-03T15:33:20.620Z,6.05
2023-03-03T15:36:32.134Z,6.01
2023-03-03T15:39:44.393Z,6.04
2023-03-03T15:42:50.363Z,6.03
2023-03-03T15:46:03.439Z,6.05
2023-03-03T15:49:21.410Z,6.26
2023-03-03T15:52:38.120Z,6.17
2023-03-03T15:55:53.736Z,6.09
2023-03-03T15:59:23.433Z,6.18
2023-03-03T16:02:33.987Z,6.20
2023-03-03T16:05:45.777Z,6.17
2023-03-03T16:09:00.159Z,6.12
2023-03-03T16:12:13.427Z,6.07
2023-03-03T16:15:50.632Z,6.20
2023-03-03T16:19:04.428Z,6.22
2023-03-03T16:22:47.986Z,6.23
2023-03-03T16:26:07.621Z,6.27
2023-03-03T16:29:33.359Z,6.27
2023-03-03T16:32:42.605Z,6.07
2023-03-03T16:35:53.211Z,6.15
2023-03-03T16:39:04.710Z,6.03
2023-03-03T16:42:16.017Z,6.15
2023-03-03T16:45:23.968Z,6.03
2023-03-03T16:48:43.739Z,6.12
2023-03-03T16:51:51.213Z,6.09
2023-03-03T16:54:58.272Z,6.17
2023-03-03T16:58:15.607Z,6.04
2023-03-03T17:01:27.894Z,5.84
2023-03-03T17:04:40.874Z,5.91
2023-03-03T17:07:45.688Z,5.77
2023-03-03T17:10:56.413Z,5.80
2023-03-03T17:14:13.959Z,5.65
2023-03-03T17:17:27.478Z,5.50
2023-03-03T17:20:36.403Z,5.49
2023-03-03T17:23:50.665Z,5.66
2023-03-03T17:27:06.905Z,5.86
2023-03-03T17:30:17.921Z,5.86
2023-03-03T17:33:36.627Z,5.78
2023-03-03T17:36:51.073Z,5.54
2023-03-03T17:40:18.829Z,5.66
2023-03-03T17:43:26.672Z,5.61
2023-03-03T17:46:35.406Z,5.60
2023-03-03T17:49:52.483Z,5.49
2023-03-03T17:53:08.246Z,5.61
2023-03-03T17:56:19.458Z,5.58
2023-03-03T17:59:41.474Z,5.62
2023-03-03T18:03:19.722Z,5.77
2023-03-03T18:06:39.720Z,5.68
2023-03-03T18:09:59.915Z,5.55
2023-03-03T18:13:10.029Z,5.53
2023-03-03T18:16:25.908Z,5.50
2023-03-03T18:19:49.004Z,5.45
2023-03-03T18:22:53.491Z,5.55
2023-03-03T18:25:58.684Z,5.69
2023-03-03T18:29:20.966Z,5.70
2023-03-03T18:32:25.290Z,5.72
2023-03-03T18:35:32.395Z,5.85
2023-03-03T18:38:41.625Z,5.78
2023-03-03T18:42:09.366Z,5.82
2023-03-03T18:45:53.587Z,5.73
2023-03-03T18:49:01.666Z,5.81
2023-03-03T18:52:21.045Z,5.72
2023-03-03T18:55:26.987Z,5.74
2023-03-03T18:58:35.834Z,5.74
2023-03-03T19:01:44.963Z,5.59
2023-03-03T19:04:55.432Z,5.50
2023-03-03T19:08:00.692Z,5.45
2023-03-03T19:11:04.352Z,5.39
2023-03-03T19:14:25.546Z,5.56
2023-03-03T19:17:50.568Z,5.39
2023-03-03T19:21:00.823Z,5.52
2023-03-03T19:24:04.845Z,5.42
2023-03-03T19:27:32.084Z,5.24
2023-03-03T19:30:46.079Z,5.25
2023-03-03T19:33:57.024Z,5.36
2023-03-03T19:37:14.652Z,5.41
2023-03-03T19:40:26.029Z,5.42
2023-03-03T19:43:39.382Z,5.27
2023-03-03T19:46:55.828Z,5.30
2023-03-03T19:50:18.276Z,5.27
2023-03-03T19:53:32.068Z,5.09
2023-03-03T19:56:41.426Z,5.02
2023-03-03T19:59:50.348Z,5.04
2023-03-03T20:03:12.804Z,5.03
2023-03-03T20:06:32.824Z,5.12
2023-03-03T20:09:46.123Z,5.01
2023-03-03T20:13:03.645Z,4.97
2023-03-03T20:16:17.772Z,5.10
2023-03-03T20:19:37.665Z,4.88
2023-03-03T20:22:48.016Z,5.02
2023-03-03T20:25:56.848Z,4.86
2023-03-03T20:29:33.709Z,5.02
2023-03-03T20:32:59.145Z,5.03
2023-03-03T20:36:11.692Z,5.00
2023-03-03T20:39:22.520Z,5.06
2023-03-03T20:42:38.831Z,5.07
2023-03-03T20:45:55.266Z,5.25
2023-03-03T20:49:20.898Z,5.14
2023-03-03T20:52:32.895Z,5.06
2023-03-03T20:55:43.680Z,5.22
2023-03-03T20:59:05.882Z,5.30
2023-03-03T21:02:18.918Z,5.26
2023-03-03T21:05:23.186Z,5.13
2023-03-03T21:08:44.726Z,5.17
2023-03-03T21:11:47.428Z,5.32
2023-03-03T21:15:00.854Z,5.28
2023-03-03T21:18:21.973Z,5.32
2023-03-03T21:21:24.673Z,5.39
2023-03-03T21:24:49.115Z,5.43
2023-03-03T21:27:51.751Z,5.55
2023-03-03T21:31:10.820Z,5.46
2023-03-03T21:34:28.056Z,5.46
2023-03-03T21:37:45.985Z,5.52
2023-03-03T21:41:00.486Z,5.59
2023-03-03T21:44:03.108Z,5.62
2023-03-03T21:47:08.741Z,5.66
2023-03-03T21:50:12.425Z,5.55
2023-03-03T21:53:15.011Z,5.78
2023-03-03T21:56:17.625Z,5.77
2023-03-03T21:59:20.587Z,5.90
2023-03-03T22:02:24.563Z,5.99
2023-03-03T22:05:27.120Z,6.06
2023-03-03T22:08:29.918Z,5.86
2023-03-03T22:11:32.703Z,5.85
2023-03-03T22:14:35.539Z,6.06
2023-03-03T22:17:40.660Z,5.99
2023-03-03T22:20:43.239Z,5.97
2023-03-03T22:23:45.825Z,6.01
2023-03-03T22:26:48.440Z,6.11
2023-03-03T22:29:51.007Z,5.97
2023-03-03T22:32:55.242Z,6.03
2023-03-03T22:35:57.909Z,6.06
2023-03-03T22:39:00.893Z,6.08
2023-03-03T22:42:03.595Z,6.07
2023-03-03T22:45:07.108Z,5.79
2023-03-03T22:48:11.622Z,5.89
2023-03-03T22:51:14.195Z,5.79
2023-03-03T22:54:16.782Z,5.89
2023-03-03T22:57:19.419Z,5.79
2023-03-03T23:00:22.541Z,5.86
2023-03-03T23:03:26.558Z,5.78
2023-03-03T23:06:29.293Z,5.92
2023-03-03T23:09:31.917Z,5.91
2023-03-03T23:12:34.560Z,6.10
2023-03-03T23:15:37.256Z,6.04
2023-03-03T23:18:41.208Z,6.10
2023-03-03T23:21:43.817Z,6.20
2023-03-03T23:24:46.428Z,5.94
2023-03-03T23:27:49.017Z,5.94
2023-03-03T23:30:52.401Z,5.91
2023-03-03T23:33:56.706Z,5.97
2023-03-03T23:36:59.429Z,5.87
2023-03-03T23:40:02.055Z,5.99
2023-03-03T23:43:04.644Z,6.01
2023-03-03T23:46:07.239Z,6.08
2023-03-03T23:49:11.171Z,6.18
2023-03-03T23:52:13.742Z,6.07
2023-03-03T23:55:16.653Z,6.00
2023-03-03T23:58:19.319Z,6.08
